Airfield :
LOGIN :

Register | Disclaimer

   EN    FR    IT 

 










Legend :    VFR   Marginal VFR   IFR   Intensive IFR   Very Intensive IFR
Visi :
Ceiling :
>= 8 km
>= 3000ft
5 to 8 km
1000 to 3000 ft
1500m to 5 km
500 to 1000 ft
800 to 1500m
200 to 500 ft
< 800m
< 200 ft
Symbols :   Thunderstorms  Fog  Heavy snow  Heavy precipitations  Wind > 20 kt
SIGMETs :     Misc.  Thunderstorms  Icing  Turbulence  Mountain Waves  Volcanic Ashes






- Airport Elevation : 194 ft
- IATA code : LME


LFRM - Le Mans

CURRENT METAR :
  • 041400Z AUTO 25006KT 200V300 9999 SCT024 BKN033 20/13 Q1020 NOSIG

EXPIRED METARs :
  • 041330Z AUTO 23004KT 170V300 9999 FEW022 OVC035 20/14 Q1021 NOSIG
  • 041300Z AUTO VRB04KT 9999 FEW023 OVC036 19/13 Q1021 NOSIG
  • 041230Z AUTO 26005KT 200V330 9999 SCT022 OVC038 19/13 Q1021 NOSIG
  • 041200Z AUTO 27004KT 210V310 9999 BKN022 OVC040 19/13 Q1021 NOSIG
  • 041130Z AUTO 21005KT 170V310 9999 BKN021 OVC039 19/13 Q1022 NOSIG

TAF TAF LFRM
Valid from the 04 at 12:00 until the 05 at 12:00 UTC


041100Z 0412/0512 VRB03KT 9999 BKN040
TEMPO 0500/0506 2000 BR
PROB40 0503/0506 0600 FG VV///
BECMG 0506/0509 BKN007
BECMG 0509/0512 BKN020



MET'MAP, your aeronautical weather chart ! - Copyright ORBIFLY December 2007 - Disclaimer

ORBIFLY MET'MAP TEAM :

Programming & Development : Alexandra Zaïnal
Original concept : Baudouin d'Aumeries
Technical & hardware support : Manuel Goepfert
Assistance : Marc-Olivier Méhu




SOURCES & CREDITS :

   NOAA